Time;durP1;ratioP1;P1;durP2;ratioP2;P2;SDS_P1;SDS_P2;PMS_P1;PMS_P2;Temp;Humidity;BMP_temperature;BMP_pressure;BME280_temperature;BME280_humidity;BME280_pressure;Samples;Min_cycle;Max_cycle;Signal;HPM_P1;HPM_P2
2021/06/02 00:01:08;;;;;;;3.92;1.88;;;;;;;21.86;43.22;101412.22;5031277;28;20017;-56
2021/06/02 00:03:36;;;;;;;3.63;2.00;;;;;;;21.86;43.17;101408.75;5031959;28;20021;-55
2021/06/02 00:06:03;;;;;;;3.42;2.08;;;;;;;21.86;42.99;101406.09;5031200;28;20072;-55
2021/06/02 00:08:28;;;;;;;3.55;2.03;;;;;;;21.86;42.92;101409.56;5030913;28;20370;-55
2021/06/02 00:10:57;;;;;;;3.72;1.90;;;;;;;21.86;43.05;101409.56;5031539;28;20087;-57
2021/06/02 00:13:23;;;;;;;3.47;1.80;;;;;;;21.86;43.04;101406.09;5030544;28;20424;-57
2021/06/02 00:15:49;;;;;;;3.78;1.95;;;;;;;21.84;43.13;101402.72;5031806;28;20152;-56
2021/06/02 00:18:15;;;;;;;3.53;1.73;;;;;;;21.84;43.04;101402.72;5031306;28;20025;-56
2021/06/02 00:20:44;;;;;;;3.72;1.90;;;;;;;21.84;43.06;101408.00;5030482;28;20365;-56
2021/06/02 00:23:09;;;;;;;3.22;1.80;;;;;;;21.84;42.94;101405.38;5030291;28;20366;-56
2021/06/02 00:25:35;;;;;;;4.13;2.00;;;;;;;21.83;42.98;101395.75;5031551;28;20021;-57
2021/06/02 00:28:00;;;;;;;4.05;1.67;;;;;;;21.83;42.98;101398.41;5031046;28;20087;-57
2021/06/02 00:30:26;;;;;;;3.47;1.75;;;;;;;21.80;42.66;101396.00;5031279;28;20549;-56
2021/06/02 00:32:56;;;;;;;3.25;1.88;;;;;;;21.81;43.06;101397.66;5031488;28;20136;-56
2021/06/02 00:35:22;;;;;;;3.58;1.75;;;;;;;21.81;42.87;101390.56;5030530;28;20057;-56
2021/06/02 00:37:54;;;;;;;3.90;2.08;;;;;;;21.81;42.92;101392.38;5031398;28;20068;-55
2021/06/02 00:40:49;;;;;;;3.05;1.80;;;;;;;21.80;42.74;101388.88;5031222;28;20034;-55
2021/06/02 00:43:16;;;;;;;3.70;1.73;;;;;;;21.77;42.77;101383.03;5019933;28;20045;-55
2021/06/02 00:45:46;;;;;;;3.30;2.00;;;;;;;21.78;42.84;101385.53;5035013;28;20025;-56
2021/06/02 00:48:14;;;;;;;3.63;1.90;;;;;;;21.79;42.95;101386.38;5034622;28;20048;-56
2021/06/02 00:50:43;;;;;;;3.78;2.00;;;;;;;21.79;42.77;101389.03;5034437;28;20064;-55
2021/06/02 00:53:09;;;;;;;3.67;2.10;;;;;;;21.77;42.72;101383.03;5034709;28;20112;-55
2021/06/02 00:55:34;;;;;;;3.08;1.80;;;;;;;21.77;42.76;101388.31;5034239;28;20125;-56
2021/06/02 00:58:01;;;;;;;3.38;1.92;;;;;;;21.76;42.92;101382.16;5034732;28;20053;-55
2021/06/02 01:00:29;;;;;;;3.58;1.80;;;;;;;21.76;42.78;101384.81;5034806;28;20036;-56
2021/06/02 01:03:00;;;;;;;3.50;1.98;;;;;;;21.74;42.75;101384.13;5033894;28;20067;-57
2021/06/02 01:05:28;;;;;;;3.83;2.10;;;;;;;21.76;42.79;101384.81;5034428;28;20029;-56
2021/06/02 01:08:01;;;;;;;3.83;2.08;;;;;;;21.75;42.98;101380.50;5034345;28;20505;-55
2021/06/02 01:10:27;;;;;;;4.13;1.90;;;;;;;21.72;43.00;101381.59;5034000;28;20052;-56
2021/06/02 01:12:59;;;;;;;4.15;2.40;;;;;;;21.73;42.92;101380.63;5035086;28;20029;-56
2021/06/02 01:15:25;;;;;;;4.55;2.15;;;;;;;21.75;42.70;101385.81;5034276;28;20496;-54
2021/06/02 01:17:50;;;;;;;3.70;2.03;;;;;;;21.74;42.75;101376.16;5033969;28;20083;-56
2021/06/02 01:20:22;;;;;;;5.07;2.05;;;;;;;21.73;42.71;101382.47;5034344;28;20101;-56
2021/06/02 01:22:48;;;;;;;4.15;1.85;;;;;;;21.72;42.73;101375.47;5034469;28;20489;-55
2021/06/02 01:25:17;;;;;;;4.47;2.28;;;;;;;21.71;42.95;101371.97;5033414;28;20122;-55
2021/06/02 01:27:43;;;;;;;3.40;1.80;;;;;;;21.69;42.82;101365.94;5034229;28;20041;-55
2021/06/02 01:30:18;;;;;;;2.97;1.80;;;;;;;21.70;42.87;101362.34;5033922;28;20029;-55
2021/06/02 01:33:22;;;;;;;3.72;1.98;;;;;;;21.71;42.86;101365.81;5033609;28;20041;-56
2021/06/02 01:36:02;;;;;;;3.50;2.10;;;;;;;21.71;42.93;101364.03;5024621;28;20045;-58
2021/06/02 01:39:04;;;;;;;5.72;2.20;;;;;;;21.71;42.88;101368.47;5033356;28;20485;-54
2021/06/02 01:41:47;;;;;;;4.70;2.08;;;;;;;21.69;42.80;101360.66;5034175;28;20035;-55
2021/06/02 01:44:41;;;;;;;3.63;1.98;;;;;;;21.70;42.69;101367.63;5033489;28;20057;-55
2021/06/02 01:47:24;;;;;;;3.80;1.92;;;;;;;21.68;42.77;101366.09;5033853;28;20033;-56
2021/06/02 01:50:11;;;;;;;3.50;1.80;;;;;;;21.69;42.56;101359.81;5033950;28;20032;-56
2021/06/02 01:53:00;;;;;;;4.05;2.17;;;;;;;21.68;42.63;101363.44;5033098;28;20044;-57
2021/06/02 01:55:57;;;;;;;4.55;2.08;;;;;;;21.68;42.90;101361.63;5033032;28;20022;-56
2021/06/02 01:58:41;;;;;;;3.92;2.00;;;;;;;21.68;42.77;101363.44;5033485;28;20037;-55
2021/06/02 02:01:25;;;;;;;4.35;2.17;;;;;;;21.66;42.61;101363.56;5032918;28;20032;-56
2021/06/02 02:04:12;;;;;;;3.53;1.90;;;;;;;21.65;42.83;101359.25;5033834;28;20062;-55
2021/06/02 02:07:08;;;;;;;3.97;2.20;;;;;;;21.66;42.78;101362.75;5032705;28;20046;-56
2021/06/02 02:09:54;;;;;;;3.33;1.98;;;;;;;21.66;42.75;101357.44;5033440;28;20031;-56
2021/06/02 02:12:36;;;;;;;4.32;2.50;;;;;;;21.64;42.81;101357.56;5033402;28;20386;-56
2021/06/02 02:15:11;;;;;;;3.50;2.00;;;;;;;21.62;42.76;101363.97;5032606;28;20025;-55
2021/06/02 02:18:04;;;;;;;4.05;1.77;;;;;;;21.63;42.84;101369.13;5033397;28;20052;-55
2021/06/02 02:20:39;;;;;;;3.83;2.00;;;;;;;21.62;42.70;101362.19;5032690;28;20187;-54
2021/06/02 02:23:26;;;;;;;4.07;1.80;;;;;;;21.63;42.78;101365.66;5032441;28;20120;-55
2021/06/02 02:26:19;;;;;;;3.92;2.03;;;;;;;21.62;42.70;101362.19;5033073;28;20021;-55
2021/06/02 02:28:47;;;;;;;4.35;2.10;;;;;;;21.62;42.63;101363.97;5032619;28;20060;-55
2021/06/02 02:31:42;;;;;;;6.68;2.13;;;;;;;21.62;42.69;101361.31;5032991;28;20029;-56
2021/06/02 02:34:23;;;;;;;5.97;2.00;;;;;;;21.61;42.52;101368.44;5032192;28;20041;-55
2021/06/02 02:36:57;;;;;;;3.80;2.10;;;;;;;21.59;42.69;101365.09;5032992;28;20028;-56
2021/06/02 02:39:34;;;;;;;;;;;;;;;21.60;42.65;101366.75;5033382;28;20381;-56
2021/06/02 02:42:07;;;;;;;3.97;2.03;;;;;;;21.60;42.52;101369.41;5031883;28;19908;-55
2021/06/02 02:44:53;;;;;;;3.72;2.00;;;;;;;21.56;42.41;101357.41;5032974;28;20021;-55
2021/06/02 02:47:56;;;;;;;3.65;2.20;;;;;;;21.59;42.72;101366.88;5032637;28;20037;-56
2021/06/02 02:50:46;;;;;;;3.58;1.80;;;;;;;21.59;42.81;101369.53;5032410;28;20025;-55
2021/06/02 02:53:19;;;;;;;3.83;2.15;;;;;;;21.59;42.49;101365.09;5032571;28;20025;-57
2021/06/02 02:55:48;;;;;;;3.78;2.20;;;;;;;21.57;42.47;101367.06;5031833;28;20071;-56
2021/06/02 02:58:25;;;;;;;3.53;2.00;;;;;;;21.56;42.37;101374.16;5032661;28;20047;-57
2021/06/02 03:01:01;;;;;;;3.58;2.00;;;;;;;21.57;42.47;101372.34;5032852;28;20026;-55
2021/06/02 03:03:34;;;;;;;3.65;2.20;;;;;;;21.54;42.38;101368.16;5031928;28;20436;-55
2021/06/02 03:06:03;;;;;;;4.63;2.00;;;;;;;21.56;42.34;101371.50;5031625;28;20501;-55
2021/06/02 03:08:35;;;;;;;3.40;1.80;;;;;;;21.57;42.35;101375.00;5032401;28;20425;-56
2021/06/02 03:11:10;;;;;;;4.65;2.20;;;;;;;21.56;42.31;101375.97;5031804;28;20049;-58
2021/06/02 03:13:49;;;;;;;3.55;2.00;;;;;;;21.53;42.37;101368.28;5032791;28;20021;-55
2021/06/02 03:16:23;;;;;;;4.82;2.45;;;;;;;21.56;42.41;101383.94;5031384;28;20112;-56
2021/06/02 03:19:08;;;;;;;4.70;2.10;;;;;;;21.55;42.31;101375.16;5032543;28;20034;-56
2021/06/02 03:22:00;;;;;;;3.25;1.85;;;;;;;21.54;42.48;101373.47;5032332;28;20040;-56
2021/06/02 03:24:39;;;;;;;3.85;2.00;;;;;;;21.54;42.50;101375.28;5031259;28;20091;-56
2021/06/02 03:27:17;;;;;;;4.10;2.08;;;;;;;21.54;42.61;101380.59;5032072;28;20120;-55
2021/06/02 03:29:50;;;;;;;4.15;1.90;;;;;;;21.54;42.37;101377.94;5032225;28;20033;-57
2021/06/02 03:32:34;;;;;;;3.92;2.30;;;;;;;21.54;42.36;101384.06;5031175;28;20033;-56
2021/06/02 03:35:13;;;;;;;4.28;2.35;;;;;;;21.54;42.45;101383.22;5032019;28;20384;-55
2021/06/02 03:38:08;;;;;;;4.25;2.05;;;;;;;21.53;42.49;101400.94;5031523;28;20026;-56
2021/06/02 03:40:45;;;;;;;3.35;1.95;;;;;;;21.53;42.51;101392.97;5032007;28;20017;-57
2021/06/02 03:43:35;;;;;;;4.57;2.10;;;;;;;21.51;42.28;101389.63;5032054;28;20080;-56
2021/06/02 03:46:19;;;;;;;4.28;2.15;;;;;;;21.52;42.43;101391.31;5003413;28;20069;-56
2021/06/02 03:49:02;;;;;;;3.60;2.10;;;;;;;21.53;42.33;101378.91;5030624;28;20112;-56
2021/06/02 03:51:40;;;;;;;3.27;1.80;;;;;;;21.51;42.42;101381.69;5031056;28;20479;-56
2021/06/02 03:54:23;;;;;;;4.47;1.90;;;;;;;21.51;42.57;101381.69;5031660;28;20279;-57
2021/06/02 03:57:19;;;;;;;3.65;2.05;;;;;;;21.52;42.57;101374.56;5032100;28;20354;-57
2021/06/02 03:59:56;;;;;;;4.65;2.30;;;;;;;21.51;42.22;101371.06;5031082;28;20075;-56
2021/06/02 04:02:43;;;;;;;3.88;2.20;;;;;;;21.50;42.51;101371.19;5031459;28;20129;-56
2021/06/02 04:05:35;;;;;;;3.70;1.98;;;;;;;21.50;42.62;101377.34;5031445;28;20040;-56
2021/06/02 04:08:37;;;;;;;3.45;1.95;;;;;;;21.50;42.46;101376.50;5031657;28;20048;-57
2021/06/02 04:11:40;;;;;;;4.13;2.33;;;;;;;21.49;42.39;101380.97;5031517;28;20087;-56
2021/06/02 04:14:06;;;;;;;4.68;2.22;;;;;;;21.49;42.23;101382.78;5030506;28;20121;-57
2021/06/02 04:16:36;;;;;;;5.28;2.40;;;;;;;21.49;42.25;101374.81;5031604;28;20045;-56
2021/06/02 04:19:05;;;;;;;4.13;2.30;;;;;;;21.49;42.51;101382.78;5035112;28;20028;-57
2021/06/02 04:21:33;;;;;;;3.97;2.30;;;;;;;21.49;42.50;101382.78;5034899;28;20056;-57
2021/06/02 04:24:01;;;;;;;4.28;2.00;;;;;;;21.49;42.45;101372.16;5035438;28;20037;-54
2021/06/02 04:26:32;;;;;;;3.83;2.03;;;;;;;21.49;42.53;101372.16;5034202;28;20029;-56
2021/06/02 04:29:00;;;;;;;3.70;2.13;;;;;;;21.43;42.40;101364.72;5035447;28;20021;-55
2021/06/02 04:31:30;;;;;;;5.68;2.38;;;;;;;21.48;42.40;101371.34;5035261;28;20400;-56
2021/06/02 04:33:57;;;;;;;7.32;2.30;;;;;;;21.48;42.47;101371.34;5034672;28;20025;-55
2021/06/02 04:36:24;;;;;;;4.63;2.20;;;;;;;21.48;42.50;101374.00;5035054;28;20033;-56
2021/06/02 04:38:53;;;;;;;5.10;2.10;;;;;;;21.47;42.36;101369.63;5035448;28;20028;-56
2021/06/02 04:41:21;;;;;;;4.97;2.03;;;;;;;21.48;42.33;101368.69;5034160;28;20033;-56
2021/06/02 04:43:48;;;;;;;4.70;2.55;;;;;;;21.47;42.55;101363.47;5035169;28;20044;-56
2021/06/02 04:46:16;;;;;;;4.00;2.20;;;;;;;21.47;42.56;101369.63;5034640;28;20540;-56
2021/06/02 04:48:41;;;;;;;3.55;2.10;;;;;;;21.45;42.20;101368.91;5034266;28;20457;-56
2021/06/02 04:51:28;;;;;;;3.85;2.25;;;;;;;21.48;42.55;101375.78;5034815;28;20029;-56
2021/06/02 04:54:34;;;;;;;3.40;1.90;;;;;;;21.48;42.31;101370.47;5034995;28;20041;-57
2021/06/02 04:57:46;;;;;;;5.00;2.38;;;;;;;21.46;42.44;101375.91;5035281;28;20029;-56
2021/06/02 05:00:43;;;;;;;3.65;2.13;;;;;;;21.47;42.33;101371.44;5034622;28;20029;-56
2021/06/02 05:03:39;;;;;;;3.88;2.05;;;;;;;21.48;42.63;101378.44;5033684;28;20556;-55
2021/06/02 05:06:18;;;;;;;5.18;2.40;;;;;;;21.44;42.53;101361.09;5034143;28;20518;-55
2021/06/02 05:09:02;;;;;;;4.13;2.20;;;;;;;21.47;42.51;101379.41;5033992;28;20492;-56
2021/06/02 05:12:06;;;;;;;3.90;2.13;;;;;;;21.47;42.71;101368.78;5034527;28;20128;-56
2021/06/02 05:14:55;;;;;;;4.25;2.40;;;;;;;21.47;42.71;101377.56;5034639;28;20099;-56
2021/06/02 05:17:54;;;;;;;6.13;2.40;;;;;;;21.48;42.67;101375.78;5033516;28;20064;-57
2021/06/02 05:24:10;;;;;;;6.30;2.30;;;;;;;21.47;42.75;101379.41;5033897;28;20048;-56
2021/06/02 05:27:06;;;;;;;4.82;2.30;;;;;;;21.50;42.67;101373.84;5034601;28;20030;-57
2021/06/02 05:30:06;;;;;;;3.70;2.00;;;;;;;21.50;42.64;101384.47;5033231;28;20044;-56
2021/06/02 05:32:31;;;;;;;4.22;2.15;;;;;;;21.50;42.81;101368.56;5034290;28;20050;-57
2021/06/02 05:35:15;;;;;;;3.50;2.00;;;;;;;21.51;42.66;101371.06;5034247;28;20068;-56
2021/06/02 05:38:10;;;;;;;3.60;2.05;;;;;;;21.50;42.80;101372.03;5033256;28;20026;-57
2021/06/02 05:41:07;;;;;;;4.35;2.28;;;;;;;21.51;42.67;101370.25;5034076;28;20040;-57
2021/06/02 05:43:51;;;;;;;4.18;2.40;;;;;;;21.52;42.66;101372.75;5032918;28;20037;-56
2021/06/02 05:46:35;;;;;;;3.67;2.03;;;;;;;21.52;42.61;101372.75;5033395;28;20025;-57
2021/06/02 05:49:28;;;;;;;3.75;2.20;;;;;;;21.52;42.64;101366.59;5033865;28;20041;-54
2021/06/02 05:52:07;;;;;;;4.35;2.10;;;;;;;21.53;42.67;101370.94;5032946;28;20022;-57
2021/06/02 05:55:06;;;;;;;3.78;2.00;;;;;;;21.52;42.90;101367.47;5033939;28;20135;-54
2021/06/02 05:58:12;;;;;;;4.30;2.50;;;;;;;21.52;42.92;101366.59;5033804;28;20040;-56
2021/06/02 06:01:10;;;;;;;4.15;2.10;;;;;;;21.54;42.95;101367.31;5033546;28;20029;-55
2021/06/02 06:03:48;;;;;;;4.57;2.30;;;;;;;21.54;42.84;101370.81;5033473;28;20461;-56
2021/06/02 06:06:41;;;;;;;4.72;2.35;;;;;;;21.55;43.01;101368.97;5032189;28;20515;-57
2021/06/02 06:09:42;;;;;;;3.67;2.10;;;;;;;21.55;42.88;101368.97;5033145;28;20049;-55
2021/06/02 06:12:43;;;;;;;4.85;2.35;;;;;;;21.54;42.78;101364.66;5032317;28;20021;-55
2021/06/02 06:15:40;;;;;;;6.25;2.92;;;;;;;21.49;42.46;101367.72;5032880;28;20174;-56
2021/06/02 06:18:14;;;;;;;9.13;3.25;;;;;;;21.51;42.08;101371.06;5033157;28;20025;-57
2021/06/02 06:21:06;;;;;;;5.47;2.92;;;;;;;21.52;42.33;101369.25;5032716;28;20029;-57
2021/06/02 06:23:51;;;;;;;4.95;2.70;;;;;;;21.52;42.75;101370.09;5013805;28;20081;-56
2021/06/02 06:26:34;;;;;;;5.88;2.83;;;;;;;21.54;42.67;101367.31;5032123;28;20025;-53
2021/06/02 06:29:22;;;;;;;5.85;3.00;;;;;;;21.54;42.49;101372.63;5033166;28;20029;-57
2021/06/02 06:31:51;;;;;;;5.38;3.15;;;;;;;21.56;42.75;101366.19;5033112;28;20075;-57
2021/06/02 06:34:25;;;;;;;8.35;3.17;;;;;;;21.57;42.76;101369.72;5031862;28;20044;-57
2021/06/02 06:36:52;;;;;;;;;;;;;;;21.59;42.65;101362.44;5033395;28;20105;-56
2021/06/02 06:39:42;;;;;;;7.28;2.78;;;;;;;21.62;42.46;101361.31;5032591;28;20528;-57
2021/06/02 06:42:11;;;;;;;5.57;2.85;;;;;;;21.62;42.41;101363.97;5031664;28;20036;-56
2021/06/02 06:44:42;;;;;;;5.82;3.35;;;;;;;21.65;42.36;101361.91;5032795;28;20500;-57
2021/06/02 06:47:09;;;;;;;6.22;2.97;;;;;;;21.66;42.38;101363.56;5031996;28;20045;-55
2021/06/02 06:49:35;;;;;;;7.00;3.03;;;;;;;21.68;42.14;101364.28;5032918;28;20030;-56
2021/06/02 06:52:01;;;;;;;7.97;2.75;;;;;;;21.71;42.30;101368.47;5032677;28;20492;-58
2021/06/02 06:54:29;;;;;;;6.10;2.88;;;;;;;21.73;42.38;101354.09;5031956;28;20602;-58
2021/06/02 06:56:55;;;;;;;6.85;2.97;;;;;;;21.74;42.38;101357.59;5032616;28;20155;-57
2021/06/02 06:59:21;;;;;;;6.25;2.95;;;;;;;21.77;42.46;101357.31;5031410;28;20375;-57
2021/06/02 07:01:47;;;;;;;5.25;2.85;;;;;;;21.79;42.56;101362.50;5032066;28;20065;-56
2021/06/02 07:04:16;;;;;;;5.10;2.55;;;;;;;21.79;42.51;101357.19;5032178;28;20426;-57
2021/06/02 07:06:44;;;;;;;6.32;2.85;;;;;;;21.82;42.61;101362.22;5032245;28;20088;-57
2021/06/02 07:09:10;;;;;;;5.22;2.70;;;;;;;21.84;42.45;101365.56;5031293;28;20029;-56
2021/06/02 07:11:43;;;;;;;4.82;2.83;;;;;;;21.85;42.57;101354.81;5032214;28;20103;-57
2021/06/02 07:14:17;;;;;;;8.35;3.17;;;;;;;21.86;42.52;101359.16;5032150;28;20041;-57
2021/06/02 07:16:42;;;;;;;5.20;2.75;;;;;;;21.85;42.19;101349.50;5031449;28;20466;-57
2021/06/02 07:19:11;;;;;;;5.50;2.70;;;;;;;21.86;42.20;101353.03;5031950;28;20044;-58
2021/06/02 07:21:42;;;;;;;6.95;2.65;;;;;;;21.87;42.37;101357.34;5032217;28;20057;-57
2021/06/02 07:24:08;;;;;;;4.57;2.60;;;;;;;21.89;42.08;101361.53;5031132;28;20024;-54
2021/06/02 07:26:34;;;;;;;6.70;3.00;;;;;;;21.92;42.09;101358.63;5034718;28;20052;-57
2021/06/02 07:28:59;;;;;;;5.78;2.80;;;;;;;21.97;42.22;101360.84;5035576;28;20465;-58
2021/06/02 07:31:25;;;;;;;5.90;2.95;;;;;;;21.99;42.10;101350.94;5033135;28;20021;-58
2021/06/02 07:33:53;;;;;;;4.75;2.70;;;;;;;22.03;42.28;101351.50;5032859;28;20029;-57
2021/06/02 07:36:18;;;;;;;6.28;3.50;;;;;;;22.06;42.07;101360.03;5033210;28;20051;-58
2021/06/02 07:38:44;;;;;;;5.90;3.10;;;;;;;22.07;42.23;101359.03;5032319;28;20029;-58
2021/06/02 07:41:09;;;;;;;6.32;2.75;;;;;;;22.08;42.31;101358.06;5032772;28;20100;-59
2021/06/02 07:43:38;;;;;;;7.18;2.72;;;;;;;22.13;42.17;101362.09;5033208;28;20021;-57
2021/06/02 07:46:06;;;;;;;4.45;2.78;;;;;;;22.14;42.29;101361.16;5032542;28;20412;-58
2021/06/02 07:48:31;;;;;;;5.82;2.80;;;;;;;22.16;42.35;101364.50;5032191;28;20074;-57
2021/06/02 07:50:56;;;;;;;6.78;2.53;;;;;;;22.16;42.11;101364.50;5032998;28;20381;-57
2021/06/02 07:53:25;;;;;;;5.10;2.60;;;;;;;22.18;41.95;101365.22;5034627;28;20512;-56
2021/06/02 07:55:50;;;;;;;5.75;2.67;;;;;;;22.19;42.27;101365.06;5032752;28;20026;-57
2021/06/02 07:58:16;;;;;;;8.32;2.63;;;;;;;22.19;42.23;101365.06;5031556;28;20539;-58
2021/06/02 08:00:42;;;;;;;4.57;2.35;;;;;;;22.19;41.95;101364.22;5032706;28;20018;-58
2021/06/02 08:03:07;;;;;;;8.43;2.75;;;;;;;22.18;42.27;101355.41;5032450;28;20530;-58
2021/06/02 08:05:32;;;;;;;5.45;2.70;;;;;;;22.20;42.27;101357.94;5032093;28;20044;-57
2021/06/02 08:07:58;;;;;;;4.32;2.40;;;;;;;22.23;42.02;101366.44;5034914;28;20390;-57
2021/06/02 08:10:24;;;;;;;4.90;2.70;;;;;;;22.24;41.74;101356.69;5034188;28;20132;-58
2021/06/02 08:12:49;;;;;;;3.88;2.40;;;;;;;22.21;41.59;101356.97;5031803;28;20049;-56
2021/06/02 08:15:18;;;;;;;4.45;2.50;;;;;;;22.21;41.76;101351.66;5031469;28;20072;-56
2021/06/02 08:17:44;;;;;;;6.28;2.78;;;;;;;22.23;41.85;101358.50;5031996;28;20025;-57
2021/06/02 08:20:11;;;;;;;6.40;2.70;;;;;;;22.24;41.78;101360.19;5030575;28;20094;-57
2021/06/02 08:22:37;;;;;;;4.05;2.38;;;;;;;22.23;41.83;101357.66;5031940;28;20022;-56
2021/06/02 08:25:05;;;;;;;5.38;2.55;;;;;;;22.24;41.68;101352.22;5031587;28;20043;-57
2021/06/02 08:27:30;;;;;;;5.07;2.70;;;;;;;22.25;41.85;101345.91;5030565;28;20405;-57
2021/06/02 08:29:56;;;;;;;5.40;2.70;;;;;;;22.26;41.96;101360.03;5031691;28;20035;-56
2021/06/02 08:32:22;;;;;;;6.53;2.55;;;;;;;22.26;41.85;101358.22;5031293;28;20112;-56
2021/06/02 08:34:47;;;;;;;6.35;2.72;;;;;;;22.29;41.91;101357.09;5030958;28;20021;-56
2021/06/02 08:37:16;;;;;;;4.40;2.70;;;;;;;22.30;41.41;101356.13;5031410;28;20026;-58
2021/06/02 08:39:42;;;;;;;4.90;2.50;;;;;;;22.32;41.51;101353.34;5030928;28;20128;-57
2021/06/02 08:42:08;;;;;;;5.93;2.67;;;;;;;22.33;41.49;101366.47;5031440;28;20029;-57
2021/06/02 08:44:35;;;;;;;6.18;2.67;;;;;;;22.34;41.49;101362.03;5031669;28;20033;-57
2021/06/02 08:47:01;;;;;;;5.75;2.67;;;;;;;22.35;41.52;101361.03;5030863;28;20505;-57
2021/06/02 08:49:27;;;;;;;3.97;2.38;;;;;;;22.37;41.53;101365.25;5031538;28;20025;-55
2021/06/02 08:51:53;;;;;;;6.00;2.50;;;;;;;22.38;41.46;101366.06;5031991;28;20021;-57
2021/06/02 08:54:19;;;;;;;4.60;2.47;;;;;;;22.38;41.25;101366.94;5030714;28;20033;-57
2021/06/02 08:56:45;;;;;;;4.63;2.70;;;;;;;22.40;40.89;101364.13;5031635;28;20028;-55
2021/06/02 08:59:11;;;;;;;4.30;2.25;;;;;;;22.40;41.12;101364.13;5031264;28;20022;-56
2021/06/02 09:01:37;;;;;;;5.82;2.83;;;;;;;22.36;40.74;101360.06;5030778;28;20022;-55
2021/06/02 09:04:07;;;;;;;5.13;2.38;;;;;;;22.41;40.24;101361.34;5031475;28;20052;-55
2021/06/02 09:06:32;;;;;;;5.38;2.70;;;;;;;22.43;40.66;101361.16;5034842;28;20037;-56
2021/06/02 09:09:01;;;;;;;5.35;2.88;;;;;;;22.45;40.61;101362.72;5034338;28;20026;-56
2021/06/02 09:11:26;;;;;;;5.10;2.60;;;;;;;22.37;40.60;101354.63;5035032;28;20370;-56
2021/06/02 09:13:52;;;;;;;4.22;2.40;;;;;;;22.45;40.21;101351.25;5035021;28;20047;-57
2021/06/02 09:16:30;;;;;;;5.07;2.63;;;;;;;22.42;40.13;101355.03;5033690;28;20539;-56
2021/06/02 09:19:03;;;;;;;6.07;2.38;;;;;;;22.41;40.29;101356.03;5035053;28;20127;-57
2021/06/02 09:21:38;;;;;;;3.67;2.30;;;;;;;22.49;40.03;101354.47;5034883;28;20096;-56
2021/06/02 09:24:05;;;;;;;5.25;2.47;;;;;;;22.48;40.00;101352.78;5033775;28;20025;-56
2021/06/02 09:26:33;;;;;;;5.13;2.33;;;;;;;22.44;39.67;101338.94;5034536;28;20033;-54
2021/06/02 09:28:58;;;;;;;5.07;2.38;;;;;;;22.50;39.66;101353.50;5033687;28;20029;-56
2021/06/02 09:31:26;;;;;;;4.63;2.75;;;;;;;22.51;39.45;101352.50;5034248;28;20025;-59
2021/06/02 09:34:12;;;;;;;6.28;2.20;;;;;;;22.51;39.38;101342.72;5035041;28;20139;-57
2021/06/02 09:36:39;;;;;;;6.18;2.40;;;;;;;22.51;38.98;101341.88;5034409;28;20041;-56
2021/06/02 09:39:07;;;;;;;4.95;2.33;;;;;;;22.52;38.72;101346.22;5034599;28;20022;-55
2021/06/02 09:41:41;;;;;;;4.63;2.28;;;;;;;22.53;38.75;101343.41;5034766;28;20034;-57
2021/06/02 09:44:13;;;;;;;4.65;2.33;;;;;;;22.52;38.41;101340.91;5033746;28;20025;-55
2021/06/02 09:46:55;;;;;;;4.63;2.17;;;;;;;22.53;38.52;101354.03;5034638;28;20397;-57
2021/06/02 09:49:49;;;;;;;4.97;2.30;;;;;;;22.55;38.14;101337.97;5033985;28;20643;-55
2021/06/02 09:52:15;;;;;;;4.15;2.30;;;;;;;22.52;37.98;101344.38;5033529;28;20022;-55
2021/06/02 09:54:41;;;;;;;4.00;2.35;;;;;;;22.52;37.86;101343.56;5034658;28;20029;-55
2021/06/02 09:57:24;;;;;;;4.38;2.28;;;;;;;22.49;38.33;101335.88;5033321;28;20358;-59
2021/06/02 10:00:00;;;;;;;4.13;2.22;;;;;;;22.48;38.24;101339.50;5034139;28;20104;-55
2021/06/02 10:02:29;;;;;;;4.13;2.10;;;;;;;22.45;38.58;101338.81;5034031;28;20030;-55
2021/06/02 10:05:12;;;;;;;4.63;2.38;;;;;;;22.45;38.84;101337.97;5033715;28;20026;-55
2021/06/02 10:07:47;;;;;;;5.75;2.00;;;;;;;22.43;39.04;101324.00;5034098;28;20133;-54
2021/06/02 10:10:18;;;;;;;4.68;2.30;;;;;;;22.41;39.13;101329.47;5033532;28;20386;-54
2021/06/02 10:12:57;;;;;;;5.47;2.25;;;;;;;22.40;39.31;101338.41;5033442;28;20100;-56
2021/06/02 10:15:34;;;;;;;3.97;2.10;;;;;;;22.39;39.28;101339.38;5033286;28;20021;-56
2021/06/02 10:18:00;;;;;;;3.97;1.80;;;;;;;22.39;39.52;101327.91;5033839;28;20079;-56
2021/06/02 10:20:27;;;;;;;6.05;2.30;;;;;;;22.39;39.71;101336.72;5032496;28;20021;-55
2021/06/02 10:22:56;;;;;;;3.80;1.98;;;;;;;22.39;39.82;101334.06;5033544;28;20039;-56
2021/06/02 10:25:24;;;;;;;4.50;2.50;;;;;;;22.37;39.89;101327.22;5032233;28;20032;-54
2021/06/02 10:27:54;;;;;;;4.20;2.10;;;;;;;22.39;39.81;101333.22;5033532;28;20056;-55
2021/06/02 10:30:26;;;;;;;4.07;2.10;;;;;;;22.39;39.89;101331.41;5033251;28;20021;-55
2021/06/02 10:32:53;;;;;;;6.80;2.10;;;;;;;22.38;40.11;101335.06;5032625;28;20358;-54
2021/06/02 10:35:22;;;;;;;4.57;2.10;;;;;;;22.36;40.18;101329.03;5032986;28;20025;-55
2021/06/02 10:37:47;;;;;;;4.78;2.03;;;;;;;22.39;40.20;101334.06;5033527;28;20055;-54
2021/06/02 10:40:19;;;;;;;5.13;2.03;;;;;;;22.40;40.21;101332.25;5032373;28;20033;-56
2021/06/02 10:42:59;;;;;;;4.15;2.17;;;;;;;22.34;40.00;101328.34;5033608;28;20026;-55
2021/06/02 10:45:31;;;;;;;4.40;2.30;;;;;;;22.38;40.33;101327.09;5032809;28;20021;-56
2021/06/02 10:47:59;;;;;;;4.18;1.77;;;;;;;22.38;40.03;101321.78;5032158;28;20055;-55
2021/06/02 10:50:53;;;;;;;4.55;2.20;;;;;;;22.39;40.40;101323.44;5032831;28;20026;-55
2021/06/02 10:53:25;;;;;;;3.15;1.83;;;;;;;22.39;40.50;101326.09;5030130;28;20029;-56
2021/06/02 10:55:58;;;;;;;3.92;2.00;;;;;;;22.39;40.29;101325.25;5033086;28;20040;-54
2021/06/02 10:58:34;;;;;;;4.15;2.00;;;;;;;22.38;40.43;101327.09;5032529;28;20029;-55
2021/06/02 11:01:09;;;;;;;4.43;2.20;;;;;;;22.37;40.64;101330.72;5031915;28;20108;-58
2021/06/02 11:03:37;;;;;;;4.32;2.10;;;;;;;22.38;40.52;101320.91;5032905;28;20053;-55
2021/06/02 11:06:14;;;;;;;4.18;1.98;;;;;;;22.38;40.43;101310.31;5032096;28;20128;-55
2021/06/02 11:08:52;;;;;;;3.90;1.92;;;;;;;22.39;40.72;101317.28;5031796;28;20026;-54
2021/06/02 11:11:31;;;;;;;4.50;1.77;;;;;;;22.38;40.61;101321.78;5032118;28;20053;-56
2021/06/02 11:14:14;;;;;;;5.80;2.15;;;;;;;22.39;40.46;101323.44;5032777;28;20036;-55
2021/06/02 11:16:55;;;;;;;4.03;1.93;;;;;;;22.38;40.75;101310.31;5031635;28;20031;-55
2021/06/02 11:19:25;;;;;;;4.97;2.00;;;;;;;22.40;40.73;101309.19;5031913;28;20025;-55
2021/06/02 11:21:54;;;;;;;3.80;1.70;;;;;;;22.41;40.45;101310.03;5031528;28;20037;-55
2021/06/02 11:24:31;;;;;;;3.78;1.95;;;;;;;22.40;40.55;101298.56;5032016;28;20033;-56
2021/06/02 11:27:15;;;;;;;3.70;1.85;;;;;;;22.41;40.87;101315.34;5031336;28;20025;-55
2021/06/02 11:29:54;;;;;;;4.97;2.10;;;;;;;22.41;40.64;101318.00;5031411;28;20029;-56
2021/06/02 11:32:26;;;;;;;3.75;1.95;;;;;;;22.41;40.86;101310.03;5031886;28;20048;-55
2021/06/02 11:34:57;;;;;;;3.20;1.90;;;;;;;22.41;40.84;101310.88;5032175;28;20038;-57
2021/06/02 11:37:26;;;;;;;3.70;2.00;;;;;;;22.41;40.92;101305.56;5031161;28;20067;-56
2021/06/02 11:39:58;;;;;;;3.72;1.80;;;;;;;22.41;40.80;101305.56;5032169;28;20037;-55
2021/06/02 11:42:34;;;;;;;3.55;2.03;;;;;;;22.42;40.98;101317.84;5031714;28;20112;-56
2021/06/02 11:45:14;;;;;;;4.68;1.92;;;;;;;22.43;40.66;101316.88;5031876;28;20507;-56
2021/06/02 11:47:51;;;;;;;3.75;1.98;;;;;;;22.43;40.85;101316.88;5032104;28;20156;-56
2021/06/02 11:50:21;;;;;;;5.00;1.90;;;;;;;22.45;40.76;101301.63;5030945;28;20032;-54
2021/06/02 11:52:55;;;;;;;3.60;1.77;;;;;;;22.47;40.74;101301.50;5031970;28;20126;-58
2021/06/02 11:55:23;;;;;;;4.53;2.00;;;;;;;22.53;40.85;101300.91;5031570;28;20018;-58
2021/06/02 11:57:51;;;;;;;3.38;1.75;;;;;;;22.54;40.81;101307.91;5031521;28;20048;-56
2021/06/02 12:00:19;;;;;;;4.13;1.80;;;;;;;22.54;40.78;101315.88;5031453;28;20449;-56
2021/06/02 12:02:46;;;;;;;4.18;1.90;;;;;;;22.54;40.64;101296.44;5031707;28;20470;-56
2021/06/02 12:05:23;;;;;;;3.83;1.80;;;;;;;22.53;40.46;101303.56;5030580;28;20500;-55
2021/06/02 12:08:00;;;;;;;4.03;1.90;;;;;;;22.54;40.61;101294.63;5031733;28;20053;-55